Time;durP1;ratioP1;P1;durP2;ratioP2;P2;SDS_P1;SDS_P2;PMS_P1;PMS_P2;Temp;Humidity;BMP_temperature;BMP_pressure;BME280_temperature;BME280_humidity;BME280_pressure;Samples;Min_cycle;Max_cycle;Signal;HPM_P1;HPM_P2
2021/12/24 00:01:00;;;;;;;83.60;25.88;;;;;;;;;;5027606;28;20044;-61
2021/12/24 00:03:26;;;;;;;98.40;26.58;;;;;;;;;;5029887;28;20128;-60
2021/12/24 00:05:52;;;;;;;107.10;27.67;;;;;;;;;;5026065;28;20049;-61
2021/12/24 00:08:18;;;;;;;100.97;25.70;;;;;;;;;;5026904;28;20037;-61
2021/12/24 00:10:48;;;;;;;91.95;25.58;;;;;;;;;;5033886;28;20423;-61
2021/12/24 00:13:16;;;;;;;92.80;25.35;;;;;;;;;;5092028;28;20118;-61
2021/12/24 00:18:24;;;;;;;79.82;25.63;;;;;;;;;;5089859;28;20143;-61
2021/12/24 00:37:07;;;;;;;63.13;20.58;;;;;;;;;;5087835;28;20407;-61
2021/12/24 00:39:38;;;;;;;65.45;22.27;;;;;;;;;;5090643;28;20112;-61
2021/12/24 00:42:04;;;;;;;64.85;21.25;;;;;;;;;;5091235;28;20048;-62
2021/12/24 00:44:30;;;;;;;57.22;20.48;;;;;;;;;;5091198;28;20051;-61
2021/12/24 00:46:56;;;;;;;58.97;20.08;;;;;;;;;;5090974;28;20043;-61
2021/12/24 00:49:22;;;;;;;50.80;19.88;;;;;;;;;;5095038;28;20116;-62
2021/12/24 00:52:06;;;;;;;48.55;18.88;;;;;;;;;;5092415;28;20040;-61
2021/12/24 00:57:17;;;;;;;51.58;18.38;;;;;;;;;;5091291;28;20044;-62
2021/12/24 00:59:43;;;;;;;52.10;18.88;;;;;;;;;;5082713;28;20044;-61
2021/12/24 01:02:09;;;;;;;59.78;19.10;;;;;;;;;;5091652;28;20047;-61
2021/12/24 01:04:35;;;;;;;43.65;16.98;;;;;;;;;;5091860;28;20044;-62
2021/12/24 01:07:01;;;;;;;44.63;17.48;;;;;;;;;;5091169;28;20047;-61
2021/12/24 01:09:27;;;;;;;50.55;17.88;;;;;;;;;;5091065;28;20093;-61
2021/12/24 01:11:53;;;;;;;48.75;17.88;;;;;;;;;;5091107;28;20078;-62
2021/12/24 01:14:21;;;;;;;47.80;17.20;;;;;;;;;;5089368;28;20074;-61
2021/12/24 01:17:08;;;;;;;41.65;17.63;;;;;;;;;;5087452;28;20114;-62
2021/12/24 01:19:37;;;;;;;44.75;17.58;;;;;;;;;;5091108;28;20422;-61
2021/12/24 01:24:42;;;;;;;41.38;15.32;;;;;;;;;;5088933;28;20181;-61
2021/12/24 01:27:40;;;;;;;40.00;16.73;;;;;;;;;;5089008;28;20153;-61
2021/12/24 01:37:51;;;;;;;36.72;15.15;;;;;;;;;;5086470;28;20122;-61
2021/12/24 01:38:34;;;;;;;28.77;13.43;;;;;;;;;;5085342;28;20048;-61
2021/12/24 01:43:27;;;;;;;28.05;12.73;;;;;;;;;;5078826;28;20044;-60
2021/12/24 01:45:55;;;;;;;23.90;11.15;;;;;;;;;;5081329;28;20032;-62
2021/12/24 01:48:21;;;;;;;28.67;12.65;;;;;;;;;;5091604;28;20038;-61
2021/12/24 01:50:48;;;;;;;31.55;13.27;;;;;;;;;;5082659;28;20109;-61
2021/12/24 01:53:15;;;;;;;32.63;12.82;;;;;;;;;;5090066;28;20461;-61
2021/12/24 01:55:42;;;;;;;29.92;13.10;;;;;;;;;;5090566;28;20143;-60
2021/12/24 01:58:09;;;;;;;34.17;13.85;;;;;;;;;;5089474;28;20058;-61
2021/12/24 02:00:37;;;;;;;36.85;13.80;;;;;;;;;;5089748;28;20522;-62
2021/12/24 02:03:03;;;;;;;33.22;14.00;;;;;;;;;;5090843;28;20105;-62
2021/12/24 02:05:32;;;;;;;29.13;12.63;;;;;;;;;;5089834;28;20043;-61
2021/12/24 02:07:59;;;;;;;25.65;12.45;;;;;;;;;;5088223;28;20043;-60
2021/12/24 02:10:25;;;;;;;36.03;13.43;;;;;;;;;;5088875;28;20112;-63
2021/12/24 02:12:52;;;;;;;33.47;13.60;;;;;;;;;;5089174;28;20047;-62
2021/12/24 02:15:31;;;;;;;35.92;15.05;;;;;;;;;;5090187;28;20044;-62
2021/12/24 02:28:44;;;;;;;33.78;13.63;;;;;;;;;;5088260;28;20391;-60
2021/12/24 02:31:15;;;;;;;33.53;14.00;;;;;;;;;;5090767;28;20040;-60
2021/12/24 02:33:41;;;;;;;36.90;14.25;;;;;;;;;;5086332;28;20036;-61
2021/12/24 02:36:08;;;;;;;44.83;14.57;;;;;;;;;;5089254;28;20077;-61
2021/12/24 02:38:34;;;;;;;35.88;14.38;;;;;;;;;;5084319;28;20162;-63
2021/12/24 02:41:02;;;;;;;33.20;14.18;;;;;;;;;;5088810;28;20131;-62
2021/12/24 02:43:28;;;;;;;38.95;14.68;;;;;;;;;;5088820;28;20058;-62
2021/12/24 02:45:58;;;;;;;37.97;15.90;;;;;;;;;;5090247;28;20048;-61
2021/12/24 02:53:57;;;;;;;42.38;14.35;;;;;;;;;;5088677;28;21245;-60
2021/12/24 02:56:25;;;;;;;40.03;14.18;;;;;;;;;;5089736;28;20044;-61
2021/12/24 02:58:52;;;;;;;29.65;12.75;;;;;;;;;;5089353;28;20040;-62
2021/12/24 03:01:19;;;;;;;50.85;13.90;;;;;;;;;;5088478;28;20032;-60
2021/12/24 03:03:48;;;;;;;32.67;12.80;;;;;;;;;;5089991;28;20036;-62
2021/12/24 03:06:17;;;;;;;41.97;12.82;;;;;;;;;;5090048;28;20040;-61
2021/12/24 03:08:43;;;;;;;24.10;10.77;;;;;;;;;;5087463;28;20442;-61
2021/12/24 03:11:09;;;;;;;29.33;12.52;;;;;;;;;;5090265;28;20099;-61
2021/12/24 03:13:36;;;;;;;24.02;10.23;;;;;;;;;;5091652;28;20036;-62
2021/12/24 03:16:03;;;;;;;24.02;10.88;;;;;;;;;;5088245;28;20063;-62
2021/12/24 03:18:31;;;;;;;26.42;10.25;;;;;;;;;;5080854;28;20047;-63
2021/12/24 03:21:25;;;;;;;24.52;10.75;;;;;;;;;;5090075;28;20047;-61
2021/12/24 03:26:35;;;;;;;19.08;8.77;;;;;;;;;;5028207;28;20435;-61
2021/12/24 03:29:01;;;;;;;26.75;10.20;;;;;;;;;;5029816;28;20046;-61
2021/12/24 03:31:28;;;;;;;21.50;9.23;;;;;;;;;;5024596;28;20128;-61
2021/12/24 03:33:54;;;;;;;21.98;10.13;;;;;;;;;;5025753;28;20041;-61
2021/12/24 03:36:24;;;;;;;20.10;9.77;;;;;;;;;;5029606;28;20435;-62
2021/12/24 03:38:51;;;;;;;24.30;11.60;;;;;;;;;;5027969;28;20136;-61
2021/12/24 03:41:17;;;;;;;28.38;12.50;;;;;;;;;;5022375;28;20056;-61
2021/12/24 03:43:43;;;;;;;24.98;11.68;;;;;;;;;;5013633;28;20053;-63
2021/12/24 03:46:14;;;;;;;31.20;13.07;;;;;;;;;;5024043;28;20049;-62
2021/12/24 03:56:29;;;;;;;48.17;19.33;;;;;;;;;;5028020;28;20488;-60
2021/12/24 03:58:55;;;;;;;50.17;20.27;;;;;;;;;;5028593;28;20049;-61
2021/12/24 04:01:21;;;;;;;48.78;21.38;;;;;;;;;;5028533;28;20129;-60
2021/12/24 04:03:47;;;;;;;46.55;20.42;;;;;;;;;;5060594;28;20055;-62
2021/12/24 04:06:13;;;;;;;53.70;21.48;;;;;;;;;;5090892;28;20091;-61
2021/12/24 04:08:39;;;;;;;47.05;20.80;;;;;;;;;;5091778;28;20123;-61
2021/12/24 04:11:05;;;;;;;48.22;19.98;;;;;;;;;;5091510;28;20048;-61
2021/12/24 04:13:32;;;;;;;48.45;20.98;;;;;;;;;;5090420;28;20068;-62
2021/12/24 04:15:58;;;;;;;45.50;19.80;;;;;;;;;;5090513;28;20048;-62
2021/12/24 04:26:30;;;;;;;51.50;18.33;;;;;;;;;;5090533;28;20112;-61
2021/12/24 04:28:56;;;;;;;39.95;16.83;;;;;;;;;;5090951;28;20067;-63
2021/12/24 04:31:29;;;;;;;44.90;16.70;;;;;;;;;;5090128;28;20027;-59
2021/12/24 04:33:59;;;;;;;46.28;18.45;;;;;;;;;;5089266;28;20547;-61
2021/12/24 05:03:14;;;;;;;39.17;16.30;;;;;;;;;;5087882;28;20052;-61
2021/12/24 05:10:38;;;;;;;39.60;16.83;;;;;;;;;;5089543;28;20092;-61
2021/12/24 05:13:05;;;;;;;51.63;18.13;;;;;;;;;;5088446;28;20109;-59
2021/12/24 05:15:35;;;;;;;49.80;20.50;;;;;;;;;;5090362;28;20036;-62
2021/12/24 05:23:11;;;;;;;43.90;17.25;;;;;;;;;;5088616;28;20498;-61
2021/12/24 05:25:42;;;;;;;36.42;15.10;;;;;;;;;;5087005;28;20101;-61
2021/12/24 05:28:09;;;;;;;38.15;16.73;;;;;;;;;;5086787;28;20808;-63
2021/12/24 05:30:35;;;;;;;42.97;16.80;;;;;;;;;;5087676;28;20039;-61
2021/12/24 05:33:01;;;;;;;52.95;16.83;;;;;;;;;;5085806;28;20035;-61
2021/12/24 05:35:27;;;;;;;30.85;14.75;;;;;;;;;;5088378;28;20040;-61
2021/12/24 05:37:53;;;;;;;43.05;17.65;;;;;;;;;;5087604;28;20043;-60
2021/12/24 05:40:19;;;;;;;42.35;16.55;;;;;;;;;;5084016;28;20394;-62
2021/12/24 05:42:45;;;;;;;33.97;14.85;;;;;;;;;;5081076;28;20081;-62
2021/12/24 05:45:11;;;;;;;37.75;13.50;;;;;;;;;;5084129;28;20096;-62
2021/12/24 05:47:37;;;;;;;42.65;14.95;;;;;;;;;;5089121;28;20367;-63
2021/12/24 05:50:05;;;;;;;36.72;14.65;;;;;;;;;;5087947;28;20035;-61
2021/12/24 05:52:32;;;;;;;30.77;13.75;;;;;;;;;;5088205;28;20143;-63
2021/12/24 05:54:58;;;;;;;38.88;13.38;;;;;;;;;;5087645;28;20516;-62
2021/12/24 05:57:26;;;;;;;31.13;13.10;;;;;;;;;;5087491;28;20040;-61
2021/12/24 05:59:52;;;;;;;32.15;12.38;;;;;;;;;;5089215;28;20456;-60
2021/12/24 06:02:18;;;;;;;33.92;13.55;;;;;;;;;;5086522;28;20133;-61
2021/12/24 06:04:44;;;;;;;33.53;13.27;;;;;;;;;;5088257;28;20181;-61
2021/12/24 06:07:12;;;;;;;31.42;13.10;;;;;;;;;;5086529;28;20117;-62
2021/12/24 06:09:38;;;;;;;33.53;12.00;;;;;;;;;;5087587;28;20445;-63
2021/12/24 06:12:04;;;;;;;34.38;11.98;;;;;;;;;;5087857;28;20063;-62
2021/12/24 06:14:30;;;;;;;30.75;11.27;;;;;;;;;;5087707;28;20047;-61
2021/12/24 06:17:04;;;;;;;35.35;12.40;;;;;;;;;;5087414;28;20547;-62
2021/12/24 06:19:31;;;;;;;37.95;12.23;;;;;;;;;;5085411;28;20109;-61
2021/12/24 06:21:57;;;;;;;28.67;11.10;;;;;;;;;;5087110;28;20047;-63
2021/12/24 06:24:23;;;;;;;33.05;10.43;;;;;;;;;;5087094;28;20035;-61
2021/12/24 06:26:50;;;;;;;27.55;10.68;;;;;;;;;;5088305;28;20067;-62
2021/12/24 06:29:16;;;;;;;32.83;11.07;;;;;;;;;;5083796;28;20043;-61
2021/12/24 06:31:43;;;;;;;28.23;11.45;;;;;;;;;;5089131;28;20123;-62
2021/12/24 06:34:09;;;;;;;25.05;10.52;;;;;;;;;;5086945;28;20036;-62
2021/12/24 06:36:39;;;;;;;36.67;11.00;;;;;;;;;;5087643;28;20036;-60
2021/12/24 06:39:06;;;;;;;36.67;11.77;;;;;;;;;;5087189;28;20043;-62
2021/12/24 06:41:32;;;;;;;37.88;11.73;;;;;;;;;;5088181;28;20048;-62
2021/12/24 06:43:58;;;;;;;34.17;11.10;;;;;;;;;;5087241;28;20482;-61
2021/12/24 06:46:24;;;;;;;30.88;10.18;;;;;;;;;;5086736;28;20127;-62
2021/12/24 06:48:56;;;;;;;27.83;10.38;;;;;;;;;;5084950;28;20462;-62
2021/12/24 06:51:22;;;;;;;37.03;11.10;;;;;;;;;;5088808;28;20505;-62
2021/12/24 06:53:48;;;;;;;26.40;9.05;;;;;;;;;;5087090;28;20043;-64
2021/12/24 06:56:14;;;;;;;30.23;10.05;;;;;;;;;;5085186;28;20039;-62
2021/12/24 06:58:40;;;;;;;28.30;9.05;;;;;;;;;;5085823;28;20040;-61
2021/12/24 07:01:06;;;;;;;26.67;8.13;;;;;;;;;;5086337;28;20050;-61
2021/12/24 07:03:32;;;;;;;24.67;8.57;;;;;;;;;;5086802;28;20054;-61
2021/12/24 07:05:58;;;;;;;27.38;8.70;;;;;;;;;;5089098;28;20516;-60
2021/12/24 07:08:24;;;;;;;24.65;8.20;;;;;;;;;;5087574;28;20032;-63
2021/12/24 07:10:50;;;;;;;29.25;9.15;;;;;;;;;;5086880;28;20375;-64
2021/12/24 07:13:16;;;;;;;29.40;8.93;;;;;;;;;;5089644;28;20134;-60
2021/12/24 07:15:42;;;;;;;31.15;9.23;;;;;;;;;;5088588;28;20522;-60
2021/12/24 07:18:08;;;;;;;28.30;8.00;;;;;;;;;;5090128;28;20040;-63
2021/12/24 07:20:34;;;;;;;22.83;8.88;;;;;;;;;;5088358;28;20043;-60
2021/12/24 07:23:01;;;;;;;23.60;7.97;;;;;;;;;;5089464;28;20040;-62
2021/12/24 07:25:27;;;;;;;27.67;8.65;;;;;;;;;;5088405;28;20451;-61
2021/12/24 07:27:53;;;;;;;25.83;8.52;;;;;;;;;;5086313;28;20028;-61
2021/12/24 07:30:20;;;;;;;29.85;9.57;;;;;;;;;;5083637;28;20394;-61
2021/12/24 07:32:46;;;;;;;24.55;7.38;;;;;;;;;;5086365;28;20551;-62
2021/12/24 07:35:12;;;;;;;23.48;6.70;;;;;;;;;;5088668;28;20588;-62
2021/12/24 07:37:39;;;;;;;27.88;6.93;;;;;;;;;;5089259;28;20040;-62
2021/12/24 07:40:06;;;;;;;19.58;6.00;;;;;;;;;;5088528;28;20032;-61
2021/12/24 07:42:32;;;;;;;21.40;6.32;;;;;;;;;;5087534;28;20040;-60
2021/12/24 07:44:58;;;;;;;20.85;5.45;;;;;;;;;;5082182;28;20113;-62
2021/12/24 07:47:32;;;;;;;23.08;7.05;;;;;;;;;;5089953;28;20028;-62
2021/12/24 07:50:14;;;;;;;18.60;5.95;;;;;;;;;;5083668;28;20036;-62
2021/12/24 07:52:40;;;;;;;26.85;6.57;;;;;;;;;;5090165;28;20406;-62
2021/12/24 07:55:09;;;;;;;28.27;6.40;;;;;;;;;;5093429;28;20032;-62
2021/12/24 07:57:35;;;;;;;23.63;6.90;;;;;;;;;;5093704;28;20077;-61
2021/12/24 08:00:01;;;;;;;26.60;6.40;;;;;;;;;;5092668;28;20035;-62
2021/12/24 08:02:28;;;;;;;21.02;6.93;;;;;;;;;;5093375;28;20032;-61
2021/12/24 08:04:54;;;;;;;30.77;8.18;;;;;;;;;;5089229;28;20116;-61
2021/12/24 08:07:21;;;;;;;30.35;7.20;;;;;;;;;;5084658;28;20143;-62
2021/12/24 08:09:48;;;;;;;24.95;7.70;;;;;;;;;;5092633;28;20066;-63
2021/12/24 08:12:14;;;;;;;32.92;7.20;;;;;;;;;;5092843;28;20075;-63
2021/12/24 08:14:40;;;;;;;36.20;7.93;;;;;;;;;;5092743;28;20051;-62
2021/12/24 08:17:06;;;;;;;30.02;7.45;;;;;;;;;;5091903;28;20456;-61
2021/12/24 08:19:33;;;;;;;32.58;7.68;;;;;;;;;;5092773;28;20051;-60
2021/12/24 08:21:59;;;;;;;32.38;7.57;;;;;;;;;;5092974;28;20047;-63
2021/12/24 08:24:25;;;;;;;32.85;8.25;;;;;;;;;;5087140;28;20176;-61
2021/12/24 08:26:52;;;;;;;27.13;7.47;;;;;;;;;;5092625;28;20055;-63
2021/12/24 08:29:19;;;;;;;25.90;7.30;;;;;;;;;;5091921;28;20150;-61
2021/12/24 08:31:45;;;;;;;30.58;7.05;;;;;;;;;;5090321;28;20128;-61
2021/12/24 08:34:11;;;;;;;26.05;7.80;;;;;;;;;;5092480;28;20040;-61
2021/12/24 08:36:37;;;;;;;33.40;7.47;;;;;;;;;;5091441;28;20044;-62
2021/12/24 08:39:04;;;;;;;28.08;6.90;;;;;;;;;;5092714;28;20091;-63
2021/12/24 08:41:30;;;;;;;22.98;6.68;;;;;;;;;;5085047;28;20474;-62
2021/12/24 08:43:56;;;;;;;25.70;6.20;;;;;;;;;;5090973;28;20052;-61
2021/12/24 08:46:22;;;;;;;30.08;6.45;;;;;;;;;;5091200;28;20032;-63
2021/12/24 08:48:48;;;;;;;22.00;5.47;;;;;;;;;;5091939;28;20039;-61
2021/12/24 08:51:15;;;;;;;27.17;6.20;;;;;;;;;;5090228;28;20198;-61
2021/12/24 08:53:41;;;;;;;27.92;6.47;;;;;;;;;;5092488;28;20039;-61
2021/12/24 08:56:07;;;;;;;29.52;5.85;;;;;;;;;;5090401;28;20398;-61
2021/12/24 08:58:33;;;;;;;26.67;6.13;;;;;;;;;;5091648;28;20038;-60
2021/12/24 09:00:59;;;;;;;29.67;5.88;;;;;;;;;;5091417;28;20075;-61
2021/12/24 09:03:25;;;;;;;25.65;5.43;;;;;;;;;;5091151;28;20124;-60
2021/12/24 09:05:51;;;;;;;23.13;4.93;;;;;;;;;;5090189;28;20512;-62
2021/12/24 09:08:18;;;;;;;30.77;6.55;;;;;;;;;;5090316;28;20032;-60
2021/12/24 09:10:44;;;;;;;26.35;5.38;;;;;;;;;;5091170;28;20043;-61
2021/12/24 09:13:10;;;;;;;19.42;4.53;;;;;;;;;;5091441;28;20126;-61
2021/12/24 09:15:37;;;;;;;29.55;5.18;;;;;;;;;;5092333;28;20066;-62
2021/12/24 09:18:04;;;;;;;24.40;5.45;;;;;;;;;;5091830;28;20391;-61
2021/12/24 09:20:36;;;;;;;32.55;5.25;;;;;;;;;;5090698;28;20039;-61
2021/12/24 09:23:02;;;;;;;29.42;4.57;;;;;;;;;;5091778;28;20036;-61
2021/12/24 09:25:29;;;;;;;23.20;4.35;;;;;;;;;;5089736;28;20043;-61
2021/12/24 09:27:55;;;;;;;28.52;5.45;;;;;;;;;;5090981;28;20044;-60
2021/12/24 09:30:21;;;;;;;32.22;5.13;;;;;;;;;;5091387;28;20474;-62
2021/12/24 09:32:48;;;;;;;29.98;5.70;;;;;;;;;;5088930;28;20040;-61
2021/12/24 09:35:14;;;;;;;29.00;4.75;;;;;;;;;;5091778;28;20119;-62
2021/12/24 09:37:40;;;;;;;24.90;5.63;;;;;;;;;;5091472;28;20119;-60
2021/12/24 09:40:07;;;;;;;28.23;5.22;;;;;;;;;;5089216;28;20039;-61
2021/12/24 09:42:34;;;;;;;20.83;5.07;;;;;;;;;;5091094;28;20039;-60
2021/12/24 09:45:00;;;;;;;24.60;5.40;;;;;;;;;;5090784;28;20067;-61
2021/12/24 09:47:26;;;;;;;25.85;5.10;;;;;;;;;;5089198;28;20051;-60
2021/12/24 09:49:53;;;;;;;25.85;5.38;;;;;;;;;;5091218;28;20161;-59
2021/12/24 09:52:20;;;;;;;25.02;6.43;;;;;;;;;;5090680;28;20398;-61
2021/12/24 09:54:47;;;;;;;24.30;5.30;;;;;;;;;;5076166;28;20071;-61
2021/12/24 09:57:13;;;;;;;32.20;5.85;;;;;;;;;;5083789;28;20407;-60
2021/12/24 09:59:39;;;;;;;23.77;5.18;;;;;;;;;;5090144;28;20458;-61
2021/12/24 10:02:14;;;;;;;27.73;5.57;;;;;;;;;;5091059;28;20067;-61
2021/12/24 10:04:41;;;;;;;27.60;5.32;;;;;;;;;;5090078;28;20044;-61
2021/12/24 10:07:08;;;;;;;27.40;5.65;;;;;;;;;;5085914;28;20459;-61
2021/12/24 10:09:34;;;;;;;27.48;6.10;;;;;;;;;;5086761;28;20127;-59
2021/12/24 10:12:02;;;;;;;19.38;5.13;;;;;;;;;;5090944;28;20471;-62
2021/12/24 10:14:36;;;;;;;24.55;6.40;;;;;;;;;;5089820;28;20058;-62
2021/12/24 10:17:03;;;;;;;21.25;6.10;;;;;;;;;;5089650;28;20044;-61
2021/12/24 10:19:29;;;;;;;29.40;5.72;;;;;;;;;;5086569;28;20048;-60
2021/12/24 10:21:59;;;;;;;20.20;5.18;;;;;;;;;;5089802;28;20127;-61
2021/12/24 10:24:30;;;;;;;29.50;4.93;;;;;;;;;;5087764;28;20044;-61
2021/12/24 10:26:59;;;;;;;22.17;5.68;;;;;;;;;;5089430;28;20101;-61
2021/12/24 10:29:28;;;;;;;27.55;5.60;;;;;;;;;;5086461;28;20063;-61
2021/12/24 10:31:56;;;;;;;22.02;5.78;;;;;;;;;;5086515;28;20074;-60
2021/12/24 10:34:22;;;;;;;24.67;5.55;;;;;;;;;;5085139;28;20032;-61
2021/12/24 10:36:58;;;;;;;25.40;5.78;;;;;;;;;;5084968;28;20127;-60
2021/12/24 10:39:28;;;;;;;21.42;5.50;;;;;;;;;;5088167;28;20073;-60
2021/12/24 10:41:54;;;;;;;21.40;5.20;;;;;;;;;;5088107;28;20040;-61
2021/12/24 10:44:20;;;;;;;23.95;6.15;;;;;;;;;;5084737;28;20036;-61
2021/12/24 10:47:00;;;;;;;19.77;5.60;;;;;;;;;;5088664;28;20479;-61
2021/12/24 10:54:57;;;;;;;22.27;5.90;;;;;;;;;;5089188;28;20093;-61
2021/12/24 10:57:28;;;;;;;21.70;4.85;;;;;;;;;;5088221;28;20036;-61
2021/12/24 10:59:56;;;;;;;23.67;4.82;;;;;;;;;;5087264;28;20040;-60
2021/12/24 11:02:27;;;;;;;16.33;5.38;;;;;;;;;;5083396;28;20071;-62
2021/12/24 11:04:53;;;;;;;18.52;5.53;;;;;;;;;;5088174;28;20055;-61
2021/12/24 11:07:38;;;;;;;20.77;5.40;;;;;;;;;;5090920;28;20430;-62
2021/12/24 11:10:05;;;;;;;24.02;6.30;;;;;;;;;;5088666;28;20032;-62
2021/12/24 11:12:34;;;;;;;24.77;6.18;;;;;;;;;;5088823;28;20090;-62
2021/12/24 11:15:00;;;;;;;30.67;5.95;;;;;;;;;;5090013;28;20494;-61
2021/12/24 11:17:39;;;;;;;17.80;5.15;;;;;;;;;;5089732;28;20043;-61
2021/12/24 11:20:10;;;;;;;25.30;5.47;;;;;;;;;;5086432;28;20044;-62
2021/12/24 11:22:57;;;;;;;18.13;4.32;;;8.40;99.90;;;;;;5089790;28;20503;-61
2021/12/24 11:25:24;;;;;;;25.20;5.13;;;;;;;;;;5089708;28;20063;-62
2021/12/24 11:27:50;;;;;;;22.80;4.03;;;;;;;;;;5091538;28;20082;-62
2021/12/24 11:30:17;;;;;;;20.20;5.03;;;;;;;;;;5091401;28;20043;-60
2021/12/24 11:32:43;;;;;;;21.38;3.50;;;;;;;;;;5085182;28;20036;-62
2021/12/24 11:35:10;;;;;;;16.10;3.75;;;;;;;;;;5091026;28;20140;-63
2021/12/24 11:37:37;;;;;;;11.32;3.03;;;;;;;;;;5092541;28;20035;-61
2021/12/24 11:40:04;;;;;;;9.65;2.47;;;;;;;;;;5092082;28;20036;-62
2021/12/24 11:42:33;;;;;;;11.80;3.22;;;;;;;;;;5087500;28;20040;-61
2021/12/24 11:45:00;;;;;;;9.45;2.55;;;;;;;;;;5092366;28;20051;-61
2021/12/24 11:47:26;;;;;;;7.75;2.80;;;;;;;;;;5086989;28;20044;-60
2021/12/24 11:49:52;;;;;;;1.90;1.25;;;;;;;;;;5084365;28;20036;-60
2021/12/24 11:52:18;;;;;;;3.70;1.73;;;;;;;;;;5088826;28;20032;-62
2021/12/24 11:54:45;;;;;;;1.23;1.05;;;;;;;;;;5093676;28;20149;-62
2021/12/24 11:57:20;;;;;;;1.95;1.80;;;;;;;;;;5083261;28;20383;-61
2021/12/24 11:59:47;;;;;;;1.02;1.00;;;;;;;;;;5090574;28;20036;-62
2021/12/24 12:02:34;;;;;;;0.93;0.82;;;7.40;99.90;;;;;;5090858;28;20036;-60
2021/12/24 12:05:12;;;;;;;1.65;1.45;;;;;;;;;;5093155;28;20115;-61
2021/12/24 12:07:38;;;;;;;3.50;3.20;;;;;;;;;;5086498;28;20562;-62
2021/12/24 12:10:04;;;;;;;3.03;2.67;;;;;;;;;;5085508;28;20111;-61
2021/12/24 12:12:34;;;;;;;2.10;1.90;;;;;;;;;;5088769;28;20533;-62
2021/12/24 12:15:19;;;;;;;1.85;1.45;;;;;;;;;;5090504;28;20039;-61
2021/12/24 12:17:51;;;;;;;4.43;3.92;;;;;;;;;;5091431;28;20043;-61
2021/12/24 12:20:44;;;;;;;1.30;0.70;;;;;;;;;;5091822;28;20047;-62
2021/12/24 12:23:18;;;;;;;1.42;1.08;;;;;;;;;;5087404;28;20063;-62
2021/12/24 12:25:44;;;;;;;1.05;0.60;;;;;;;;;;5092579;28;20075;-60
2021/12/24 12:28:14;;;;;;;0.90;0.70;;;;;;;;;;5092716;28;20216;-61
2021/12/24 12:30:47;;;;;;;0.88;0.73;;;;;;;;;;5092021;28;20371;-61
2021/12/24 12:33:20;;;;;;;1.08;0.73;;;;;;;;;;5090776;28;20604;-60
2021/12/24 12:35:48;;;;;;;1.63;0.60;;;;;;;;;;5092556;28;20044;-60
2021/12/24 12:38:26;;;;;;;0.68;0.68;;;;;;;;;;5091442;28;20047;-62
2021/12/24 12:40:52;;;;;;;1.25;0.80;;;;;;;;;;5091819;28;20112;-61
2021/12/24 12:43:20;;;;;;;0.73;0.73;;;;;;;;;;5092618;28;20032;-61
2021/12/24 12:45:47;;;;;;;1.23;0.68;;;;;;;;;;5087388;28;20054;-62
2021/12/24 12:48:23;;;;;;;0.98;0.90;;;;;;;;;;5091652;28;20470;-60
2021/12/24 12:50:54;;;;;;;0.85;0.85;;;;;;;;;;5092089;28;20035;-61
2021/12/24 12:53:23;;;;;;;1.15;0.88;;;;;;;;;;5091750;28;20338;-61
2021/12/24 12:55:50;;;;;;;3.03;0.93;;;;;;;;;;5092384;28;20043;-60
2021/12/24 12:58:23;;;;;;;1.38;0.95;;;;;;;;;;5092322;28;20363;-62
2021/12/24 13:01:10;;;;;;;1.00;0.88;;;;;;;;;;5090792;28;20039;-61
2021/12/24 13:03:55;;;;;;;1.33;1.00;;;;;;;;;;5091703;28;20048;-63
2021/12/24 13:06:21;;;;;;;3.28;1.10;;;;;;;;;;5091469;28;20040;-61
2021/12/24 13:08:47;;;;;;;1.73;0.70;;;;;;;;;;5091904;28;20051;-62
2021/12/24 13:11:15;;;;;;;0.80;0.80;;;;;;;;;;5090429;28;20079;-63
2021/12/24 13:14:01;;;;;;;1.00;0.98;;;;;;;;;;5090274;28;20036;-62
2021/12/24 13:16:38;;;;;;;0.60;0.60;;;;;;;;;;5091921;28;20036;-61
2021/12/24 13:24:41;;;;;;;1.80;0.88;;;;;;;;;;5091415;28;20036;-61
2021/12/24 13:27:07;;;;;;;1.00;0.80;;;;;;;;;;5088694;28;20036;-62
2021/12/24 13:29:33;;;;;;;1.95;0.90;;;;;;;;;;5091547;28;20040;-62
2021/12/24 13:32:01;;;;;;;2.05;0.80;;;;;;;;;;5091675;28;20398;-62
2021/12/24 13:34:27;;;;;;;0.98;0.80;;;;;;;;;;5091432;28;20048;-61
2021/12/24 13:36:55;;;;;;;0.77;0.77;;;;;;;;;;5091421;28;20423;-61
2021/12/24 13:39:22;;;;;;;0.82;0.82;;;;;;;;;;5091440;28;20079;-62
2021/12/24 13:41:59;;;;;;;0.77;0.70;;;;;;;;;;5091231;28;20479;-60
2021/12/24 13:44:26;;;;;;;0.95;0.73;;;;;;;;;;5091196;28;20402;-60
2021/12/24 13:46:59;;;;;;;0.90;0.80;;;;;;;;;;5088352;28;20444;-62
2021/12/24 13:50:03;;;;;;;1.13;0.70;;;;;;;;;;5089333;28;20051;-61
2021/12/24 13:54:59;;;;;;;1.02;0.93;;;;;;;;;;5091512;28;20036;-61
2021/12/24 13:57:25;;;;;;;1.20;1.10;;;;;;;;;;5096527;28;20043;-63
2021/12/24 13:59:52;;;;;;;2.30;1.10;;;;;;;;;;5091108;28;20083;-60
2021/12/24 14:02:18;;;;;;;0.95;0.90;;;;;;;;;;5088313;28;20039;-61
2021/12/24 14:04:44;;;;;;;1.13;1.00;;;;;;;;;;5090785;28;20481;-62
2021/12/24 14:07:10;;;;;;;1.05;0.95;;;;;;;;;;5093130;28;20047;-62
2021/12/24 14:09:36;;;;;;;1.00;1.00;;;;;;;;;;5091125;28;20040;-62
2021/12/24 14:12:06;;;;;;;1.20;1.00;;;;;;;;;;5090433;28;20048;-61
2021/12/24 14:14:44;;;;;;;1.10;1.00;;;;;;;;;;5090372;28;20048;-61
2021/12/24 14:17:34;;;;;;;0.90;0.90;;;;;;;;;;5089762;28;20093;-60
2021/12/24 14:20:09;;;;;;;1.10;1.00;;;;;;;;;;5090454;28;20051;-61
2021/12/24 14:22:35;;;;;;;1.05;0.95;;;;;;;;;;5090246;28;20043;-62
2021/12/24 14:25:08;;;;;;;1.23;1.10;;;;;;;;;;5090334;28;20059;-63
2021/12/24 14:27:34;;;;;;;0.93;0.90;;;;;;;;;;5090087;28;20043;-63
2021/12/24 14:30:03;;;;;;;0.90;0.90;;;;;;;;;;5090619;28;20089;-61
2021/12/24 14:32:37;;;;;;;1.02;1.00;;;;;;;;;;5090154;28;20070;-61
2021/12/24 14:35:19;;;;;;;1.00;0.90;;;;;;;;;;5087893;28;20078;-61
2021/12/24 14:37:45;;;;;;;;;;;;;;;;;;5090260;28;20069;-62
2021/12/24 14:40:13;;;;;;;1.80;1.02;;;;;;;;;;5089793;28;19945;-63
2021/12/24 14:42:41;;;;;;;2.58;1.48;;;;;;;;;;5090295;28;20036;-62
2021/12/24 14:45:25;;;;;;;1.67;1.58;;;;;;;;;;5090031;28;20036;-60
2021/12/24 14:47:58;;;;;;;1.60;1.50;;;;;;;;;;5090155;28;20036;-63
2021/12/24 14:50:24;;;;;;;1.60;1.40;;;;;;;;;;5090440;28;20036;-60
2021/12/24 14:53:17;;;;;;;2.35;1.17;;;7.00;99.90;;;;;;5090070;28;20039;-61
2021/12/24 14:55:47;;;;;;;1.92;1.40;;;;;;;;;;5090386;28;20064;-61
2021/12/24 14:58:17;;;;;;;1.55;1.30;;;;;;;;;;5089876;28;20071;-61
2021/12/24 15:00:45;;;;;;;1.58;1.40;;;;;;;;;;5090199;28;20375;-62
2021/12/24 15:03:12;;;;;;;1.30;1.20;;;;;;;;;;5093802;28;20043;-61
2021/12/24 15:05:47;;;;;;;1.30;1.20;;;;;;;;;;5094331;28;20058;-62
2021/12/24 15:08:18;;;;;;;1.63;1.48;;;;;;;;;;5093060;28;20032;-61
2021/12/24 15:11:03;;;;;;;2.35;1.35;;;;;;;;;;5094286;28;20035;-61
2021/12/24 15:13:30;;;;;;;1.52;1.27;;;;;;;;;;5094289;28;20075;-62
2021/12/24 15:15:57;;;;;;;2.20;1.38;;;;;;;;;;5096337;28;20568;-62
2021/12/24 15:18:23;;;;;;;1.40;1.30;;;;;;;;;;5094400;28;20035;-62
2021/12/24 15:20:49;;;;;;;1.33;1.23;;;;;;;;;;5093947;28;20078;-64
2021/12/24 15:23:16;;;;;;;1.63;1.20;;;;;;;;;;5094384;28;20620;-63
2021/12/24 15:25:46;;;;;;;2.05;1.40;;;;;;;;;;5094042;28;20132;-61
2021/12/24 15:28:15;;;;;;;2.28;1.50;;;;;;;;;;5094106;28;20032;-60
2021/12/24 15:30:41;;;;;;;3.05;1.50;;;;;;;;;;5093888;28;20032;-61
2021/12/24 15:33:09;;;;;;;1.90;1.50;;;;;;;;;;5093438;28;20040;-60
2021/12/24 15:35:35;;;;;;;3.13;1.42;;;;;;;;;;5093769;28;20040;-62
2021/12/24 15:38:02;;;;;;;3.88;1.50;;;;;;;;;;5090323;28;20032;-61
2021/12/24 15:40:28;;;;;;;1.73;1.60;;;;;;;;;;5092737;28;20044;-61
2021/12/24 15:42:55;;;;;;;1.58;1.48;;;;;;;;;;5095105;28;20043;-62
2021/12/24 15:45:24;;;;;;;1.67;1.58;;;;;;;;;;5093416;28;20051;-62
2021/12/24 15:47:50;;;;;;;2.30;1.65;;;;;;;;;;5093216;28;20467;-63
2021/12/24 15:50:16;;;;;;;3.25;1.88;;;;;;;;;;5090313;28;20127;-62
2021/12/24 15:52:42;;;;;;;1.75;1.60;;;;;;;;;;5094738;28;20068;-62
2021/12/24 15:55:08;;;;;;;2.55;1.92;;;;;;;;;;5094470;28;20056;-61
2021/12/24 15:57:34;;;;;;;1.60;1.50;;;;;;;;;;5093557;28;20067;-61
2021/12/24 16:00:00;;;;;;;3.10;2.03;;;;;;;;;;5090330;28;20046;-61
2021/12/24 16:02:26;;;;;;;1.90;1.70;;;;;;;;;;5093323;28;20043;-60
2021/12/24 16:04:52;;;;;;;2.00;1.60;;;;;;;;;;5097174;28;20043;-62
2021/12/24 16:07:18;;;;;;;1.85;1.70;;;;;;;;;;5092535;28;20523;-62
2021/12/24 16:09:46;;;;;;;2.50;1.50;;;;;;;;;;5092537;28;20092;-61
2021/12/24 16:12:12;;;;;;;2.75;2.00;;;;;;;;;;5092522;28;20277;-60
2021/12/24 16:14:39;;;;;;;2.17;1.55;;;;;;;;;;5092905;28;20127;-61
2021/12/24 16:17:05;;;;;;;2.20;1.95;;;;;;;;;;5092608;28;20043;-61
2021/12/24 16:19:31;;;;;;;4.88;2.53;;;;;;;;;;5092996;28;20047;-62
2021/12/24 16:21:57;;;;;;;2.40;2.20;;;;;;;;;;5092838;28;20036;-61
2021/12/24 16:24:23;;;;;;;2.85;2.50;;;;;;;;;;5092796;28;20394;-62
2021/12/24 16:26:49;;;;;;;3.15;2.40;;;;;;;;;;5092460;28;20051;-61
2021/12/24 16:29:18;;;;;;;3.25;2.80;;;;;;;;;;5092506;28;20036;-60
2021/12/24 16:31:45;;;;;;;4.32;3.38;;;;;;;;;;5092762;28;20090;-61
2021/12/24 16:34:11;;;;;;;5.30;3.20;;;;;;;;;;5089917;28;20032;-61